sensor_id;sensor_type;location;lat;lon;timestamp;P1;durP1;ratioP1;P2;durP2;ratioP2
43606;SDS011;29197;44.788;10.366;2023-04-24T00:01:02;1.92;;;1.40;;
43606;SDS011;29197;44.788;10.366;2023-04-24T00:03:55;1.90;;;1.45;;
43606;SDS011;29197;44.788;10.366;2023-04-24T00:06:46;1.50;;;1.10;;
43606;SDS011;29197;44.788;10.366;2023-04-24T00:09:39;1.40;;;1.30;;
43606;SDS011;29197;44.788;10.366;2023-04-24T00:12:28;3.35;;;1.92;;
43606;SDS011;29197;44.788;10.366;2023-04-24T00:15:17;2.10;;;1.40;;
43606;SDS011;29197;44.788;10.366;2023-04-24T00:18:05;1.30;;;1.00;;
43606;SDS011;29197;44.788;10.366;2023-04-24T00:20:55;5.60;;;2.77;;
43606;SDS011;29197;44.788;10.366;2023-04-24T00:23:44;2.22;;;1.70;;
43606;SDS011;29197;44.788;10.366;2023-04-24T00:26:32;1.90;;;1.30;;
43606;SDS011;29197;44.788;10.366;2023-04-24T00:29:30;2.08;;;1.40;;
43606;SDS011;29197;44.788;10.366;2023-04-24T00:32:19;1.52;;;1.30;;
43606;SDS011;29197;44.788;10.366;2023-04-24T00:35:08;2.53;;;1.50;;
43606;SDS011;29197;44.788;10.366;2023-04-24T00:37:58;1.73;;;1.50;;
43606;SDS011;29197;44.788;10.366;2023-04-24T00:40:46;2.97;;;1.50;;
43606;SDS011;29197;44.788;10.366;2023-04-24T00:43:36;1.75;;;1.60;;
43606;SDS011;29197;44.788;10.366;2023-04-24T00:46:25;2.17;;;1.75;;
43606;SDS011;29197;44.788;10.366;2023-04-24T00:49:13;2.45;;;1.73;;
43606;SDS011;29197;44.788;10.366;2023-04-24T00:52:02;2.83;;;1.83;;
43606;SDS011;29197;44.788;10.366;2023-04-24T00:54:55;3.80;;;2.07;;
43606;SDS011;29197;44.788;10.366;2023-04-24T00:57:44;2.67;;;2.20;;
43606;SDS011;29197;44.788;10.366;2023-04-24T01:00:34;2.65;;;2.25;;
43606;SDS011;29197;44.788;10.366;2023-04-24T01:03:24;3.42;;;2.45;;
43606;SDS011;29197;44.788;10.366;2023-04-24T01:06:18;3.80;;;2.20;;
43606;SDS011;29197;44.788;10.366;2023-04-24T01:09:07;3.28;;;2.58;;
43606;SDS011;29197;44.788;10.366;2023-04-24T01:11:58;5.97;;;2.50;;
43606;SDS011;29197;44.788;10.366;2023-04-24T01:14:47;3.92;;;2.65;;
43606;SDS011;29197;44.788;10.366;2023-04-24T01:17:35;4.90;;;3.10;;
43606;SDS011;29197;44.788;10.366;2023-04-24T01:20:25;5.03;;;3.40;;
43606;SDS011;29197;44.788;10.366;2023-04-24T01:23:15;4.05;;;3.03;;
43606;SDS011;29197;44.788;10.366;2023-04-24T01:26:04;2.60;;;2.40;;
43606;SDS011;29197;44.788;10.366;2023-04-24T01:28:52;5.43;;;2.80;;
43606;SDS011;29197;44.788;10.366;2023-04-24T01:31:41;3.53;;;2.47;;
43606;SDS011;29197;44.788;10.366;2023-04-24T01:34:30;2.75;;;2.53;;
43606;SDS011;29197;44.788;10.366;2023-04-24T01:37:19;3.60;;;2.60;;
43606;SDS011;29197;44.788;10.366;2023-04-24T01:40:09;3.30;;;3.00;;
43606;SDS011;29197;44.788;10.366;2023-04-24T01:42:58;4.82;;;2.97;;
43606;SDS011;29197;44.788;10.366;2023-04-24T01:45:46;3.58;;;2.85;;
43606;SDS011;29197;44.788;10.366;2023-04-24T01:48:35;5.20;;;3.92;;
43606;SDS011;29197;44.788;10.366;2023-04-24T01:51:23;3.60;;;3.28;;
43606;SDS011;29197;44.788;10.366;2023-04-24T01:54:12;5.40;;;3.90;;
43606;SDS011;29197;44.788;10.366;2023-04-24T01:57:02;4.80;;;3.40;;
43606;SDS011;29197;44.788;10.366;2023-04-24T01:59:50;5.70;;;3.63;;
43606;SDS011;29197;44.788;10.366;2023-04-24T02:02:39;6.18;;;4.10;;
43606;SDS011;29197;44.788;10.366;2023-04-24T02:05:32;5.68;;;4.05;;
43606;SDS011;29197;44.788;10.366;2023-04-24T02:08:20;6.25;;;4.78;;
43606;SDS011;29197;44.788;10.366;2023-04-24T02:11:09;6.90;;;4.55;;
43606;SDS011;29197;44.788;10.366;2023-04-24T02:13:59;5.13;;;4.35;;
43606;SDS011;29197;44.788;10.366;2023-04-24T02:16:47;5.38;;;4.05;;
43606;SDS011;29197;44.788;10.366;2023-04-24T02:19:36;4.33;;;3.60;;
43606;SDS011;29197;44.788;10.366;2023-04-24T02:22:24;8.65;;;5.43;;
43606;SDS011;29197;44.788;10.366;2023-04-24T02:25:12;4.95;;;3.58;;
43606;SDS011;29197;44.788;10.366;2023-04-24T02:28:01;5.00;;;4.15;;
43606;SDS011;29197;44.788;10.366;2023-04-24T02:30:51;7.35;;;4.93;;
43606;SDS011;29197;44.788;10.366;2023-04-24T02:33:40;6.47;;;5.03;;
43606;SDS011;29197;44.788;10.366;2023-04-24T02:36:28;5.45;;;4.55;;
43606;SDS011;29197;44.788;10.366;2023-04-24T02:39:18;6.18;;;4.63;;
43606;SDS011;29197;44.788;10.366;2023-04-24T02:42:06;4.43;;;4.03;;
43606;SDS011;29197;44.788;10.366;2023-04-24T02:44:55;4.75;;;4.10;;
43606;SDS011;29197;44.788;10.366;2023-04-24T02:47:44;5.10;;;3.65;;
43606;SDS011;29197;44.788;10.366;2023-04-24T02:50:33;6.05;;;3.90;;
43606;SDS011;29197;44.788;10.366;2023-04-24T02:53:21;5.07;;;3.30;;
43606;SDS011;29197;44.788;10.366;2023-04-24T02:56:10;4.03;;;3.60;;
43606;SDS011;29197;44.788;10.366;2023-04-24T02:58:59;4.53;;;4.03;;
43606;SDS011;29197;44.788;10.366;2023-04-24T03:01:48;4.10;;;3.60;;
43606;SDS011;29197;44.788;10.366;2023-04-24T03:04:38;4.28;;;3.75;;
43606;SDS011;29197;44.788;10.366;2023-04-24T03:07:27;4.72;;;3.65;;
43606;SDS011;29197;44.788;10.366;2023-04-24T03:10:15;3.88;;;3.53;;
43606;SDS011;29197;44.788;10.366;2023-04-24T03:13:04;3.63;;;3.33;;
43606;SDS011;29197;44.788;10.366;2023-04-24T03:15:52;3.58;;;3.08;;
43606;SDS011;29197;44.788;10.366;2023-04-24T03:18:41;4.15;;;3.60;;
43606;SDS011;29197;44.788;10.366;2023-04-24T03:21:31;4.18;;;3.30;;
43606;SDS011;29197;44.788;10.366;2023-04-24T03:24:20;4.50;;;4.05;;
43606;SDS011;29197;44.788;10.366;2023-04-24T03:27:09;4.78;;;3.65;;
43606;SDS011;29197;44.788;10.366;2023-04-24T03:29:57;4.90;;;3.60;;
43606;SDS011;29197;44.788;10.366;2023-04-24T03:32:47;5.97;;;4.88;;
43606;SDS011;29197;44.788;10.366;2023-04-24T03:35:35;6.00;;;5.20;;
43606;SDS011;29197;44.788;10.366;2023-04-24T03:38:25;4.65;;;4.15;;
43606;SDS011;29197;44.788;10.366;2023-04-24T03:41:14;4.45;;;3.55;;
43606;SDS011;29197;44.788;10.366;2023-04-24T03:44:03;4.40;;;3.50;;
43606;SDS011;29197;44.788;10.366;2023-04-24T03:46:51;4.20;;;3.70;;
43606;SDS011;29197;44.788;10.366;2023-04-24T03:49:39;4.68;;;3.67;;
43606;SDS011;29197;44.788;10.366;2023-04-24T03:52:28;4.35;;;3.38;;
43606;SDS011;29197;44.788;10.366;2023-04-24T03:55:18;4.43;;;3.53;;
43606;SDS011;29197;44.788;10.366;2023-04-24T03:58:07;4.05;;;3.60;;
43606;SDS011;29197;44.788;10.366;2023-04-24T04:00:55;4.10;;;3.70;;
43606;SDS011;29197;44.788;10.366;2023-04-24T04:03:44;4.22;;;3.53;;
43606;SDS011;29197;44.788;10.366;2023-04-24T04:06:33;4.50;;;3.90;;
43606;SDS011;29197;44.788;10.366;2023-04-24T04:09:22;4.17;;;3.57;;
43606;SDS011;29197;44.788;10.366;2023-04-24T04:12:12;4.93;;;4.43;;
43606;SDS011;29197;44.788;10.366;2023-04-24T04:15:01;5.38;;;4.13;;
43606;SDS011;29197;44.788;10.366;2023-04-24T04:17:50;7.57;;;5.70;;
43606;SDS011;29197;44.788;10.366;2023-04-24T04:20:38;4.82;;;4.05;;
43606;SDS011;29197;44.788;10.366;2023-04-24T04:23:27;5.70;;;4.20;;
43606;SDS011;29197;44.788;10.366;2023-04-24T04:26:16;5.53;;;3.88;;
43606;SDS011;29197;44.788;10.366;2023-04-24T04:29:07;5.35;;;4.45;;
43606;SDS011;29197;44.788;10.366;2023-04-24T04:31:55;4.88;;;4.30;;
43606;SDS011;29197;44.788;10.366;2023-04-24T04:34:44;5.53;;;4.45;;
43606;SDS011;29197;44.788;10.366;2023-04-24T04:37:32;6.07;;;4.95;;
43606;SDS011;29197;44.788;10.366;2023-04-24T04:40:21;5.85;;;4.88;;
43606;SDS011;29197;44.788;10.366;2023-04-24T04:43:10;5.40;;;4.60;;
43606;SDS011;29197;44.788;10.366;2023-04-24T04:46:01;5.60;;;4.70;;
43606;SDS011;29197;44.788;10.366;2023-04-24T04:48:50;6.32;;;4.70;;
43606;SDS011;29197;44.788;10.366;2023-04-24T04:51:38;5.95;;;5.00;;
43606;SDS011;29197;44.788;10.366;2023-04-24T04:54:28;8.52;;;7.13;;
43606;SDS011;29197;44.788;10.366;2023-04-24T04:57:17;7.35;;;6.00;;
43606;SDS011;29197;44.788;10.366;2023-04-24T05:00:07;7.20;;;5.57;;
43606;SDS011;29197;44.788;10.366;2023-04-24T05:02:59;8.07;;;6.43;;
43606;SDS011;29197;44.788;10.366;2023-04-24T05:06:05;6.85;;;5.78;;
43606;SDS011;29197;44.788;10.366;2023-04-24T05:08:54;9.07;;;6.78;;
43606;SDS011;29197;44.788;10.366;2023-04-24T05:11:44;8.98;;;6.15;;
43606;SDS011;29197;44.788;10.366;2023-04-24T05:14:33;6.15;;;5.40;;
43606;SDS011;29197;44.788;10.366;2023-04-24T05:17:21;6.93;;;5.90;;
43606;SDS011;29197;44.788;10.366;2023-04-24T05:20:11;6.20;;;4.35;;
43606;SDS011;29197;44.788;10.366;2023-04-24T05:23:00;5.65;;;4.97;;
43606;SDS011;29197;44.788;10.366;2023-04-24T05:25:48;4.93;;;4.38;;
43606;SDS011;29197;44.788;10.366;2023-04-24T05:28:37;11.18;;;7.18;;
43606;SDS011;29197;44.788;10.366;2023-04-24T05:31:25;10.57;;;7.38;;
43606;SDS011;29197;44.788;10.366;2023-04-24T05:34:14;8.20;;;5.38;;
43606;SDS011;29197;44.788;10.366;2023-04-24T05:37:04;5.45;;;4.88;;
43606;SDS011;29197;44.788;10.366;2023-04-24T05:39:56;11.27;;;7.97;;
43606;SDS011;29197;44.788;10.366;2023-04-24T05:42:45;7.32;;;5.85;;
43606;SDS011;29197;44.788;10.366;2023-04-24T05:45:33;6.55;;;5.65;;
43606;SDS011;29197;44.788;10.366;2023-04-24T05:48:22;6.43;;;5.68;;
43606;SDS011;29197;44.788;10.366;2023-04-24T05:51:11;9.45;;;7.60;;
43606;SDS011;29197;44.788;10.366;2023-04-24T05:54:01;8.57;;;6.30;;
43606;SDS011;29197;44.788;10.366;2023-04-24T05:56:50;10.43;;;8.00;;
43606;SDS011;29197;44.788;10.366;2023-04-24T05:59:38;6.80;;;6.10;;
43606;SDS011;29197;44.788;10.366;2023-04-24T06:02:28;6.40;;;5.00;;
43606;SDS011;29197;44.788;10.366;2023-04-24T06:05:19;5.57;;;5.07;;
43606;SDS011;29197;44.788;10.366;2023-04-24T06:08:08;6.03;;;4.95;;
43606;SDS011;29197;44.788;10.366;2023-04-24T06:10:59;6.32;;;5.03;;
43606;SDS011;29197;44.788;10.366;2023-04-24T06:13:50;7.20;;;4.80;;
43606;SDS011;29197;44.788;10.366;2023-04-24T06:16:40;6.90;;;5.50;;
43606;SDS011;29197;44.788;10.366;2023-04-24T06:19:29;5.72;;;4.75;;
43606;SDS011;29197;44.788;10.366;2023-04-24T06:22:18;6.70;;;5.72;;
43606;SDS011;29197;44.788;10.366;2023-04-24T06:25:07;6.03;;;5.10;;
43606;SDS011;29197;44.788;10.366;2023-04-24T06:27:57;6.68;;;5.63;;
43606;SDS011;29197;44.788;10.366;2023-04-24T06:30:46;8.50;;;6.95;;
43606;SDS011;29197;44.788;10.366;2023-04-24T06:33:34;7.07;;;6.30;;
43606;SDS011;29197;44.788;10.366;2023-04-24T06:36:23;6.03;;;5.25;;
43606;SDS011;29197;44.788;10.366;2023-04-24T06:39:11;7.70;;;6.25;;
43606;SDS011;29197;44.788;10.366;2023-04-24T06:42:00;12.90;;;8.45;;
43606;SDS011;29197;44.788;10.366;2023-04-24T06:44:50;9.25;;;7.57;;
43606;SDS011;29197;44.788;10.366;2023-04-24T06:47:38;8.90;;;6.93;;
43606;SDS011;29197;44.788;10.366;2023-04-24T06:50:27;8.90;;;7.33;;
43606;SDS011;29197;44.788;10.366;2023-04-24T06:53:15;8.10;;;7.30;;
43606;SDS011;29197;44.788;10.366;2023-04-24T06:56:04;6.80;;;5.43;;
43606;SDS011;29197;44.788;10.366;2023-04-24T06:58:52;11.03;;;8.47;;
43606;SDS011;29197;44.788;10.366;2023-04-24T07:01:42;10.52;;;7.85;;
43606;SDS011;29197;44.788;10.366;2023-04-24T07:04:32;6.93;;;5.55;;
43606;SDS011;29197;44.788;10.366;2023-04-24T07:07:20;11.48;;;8.43;;
43606;SDS011;29197;44.788;10.366;2023-04-24T07:10:11;7.93;;;6.10;;
43606;SDS011;29197;44.788;10.366;2023-04-24T07:12:59;6.22;;;5.63;;
43606;SDS011;29197;44.788;10.366;2023-04-24T07:15:48;7.53;;;6.03;;
43606;SDS011;29197;44.788;10.366;2023-04-24T07:18:39;6.68;;;5.00;;
43606;SDS011;29197;44.788;10.366;2023-04-24T07:21:27;4.60;;;3.67;;
43606;SDS011;29197;44.788;10.366;2023-04-24T07:24:17;5.03;;;4.40;;
43606;SDS011;29197;44.788;10.366;2023-04-24T07:27:08;7.90;;;5.83;;
43606;SDS011;29197;44.788;10.366;2023-04-24T07:29:58;6.75;;;5.70;;
43606;SDS011;29197;44.788;10.366;2023-04-24T07:32:46;6.67;;;4.57;;
43606;SDS011;29197;44.788;10.366;2023-04-24T07:35:36;5.65;;;4.25;;
43606;SDS011;29197;44.788;10.366;2023-04-24T07:38:25;5.65;;;4.60;;
43606;SDS011;29197;44.788;10.366;2023-04-24T07:41:13;5.10;;;4.60;;
43606;SDS011;29197;44.788;10.366;2023-04-24T07:44:02;6.85;;;4.38;;
43606;SDS011;29197;44.788;10.366;2023-04-24T07:46:50;6.45;;;4.25;;
43606;SDS011;29197;44.788;10.366;2023-04-24T07:49:39;5.40;;;4.10;;
43606;SDS011;29197;44.788;10.366;2023-04-24T07:52:30;4.57;;;3.85;;
43606;SDS011;29197;44.788;10.366;2023-04-24T07:55:19;4.83;;;4.10;;
43606;SDS011;29197;44.788;10.366;2023-04-24T07:58:11;9.67;;;5.80;;
43606;SDS011;29197;44.788;10.366;2023-04-24T08:00:59;7.05;;;5.38;;
43606;SDS011;29197;44.788;10.366;2023-04-24T08:03:48;5.22;;;4.10;;
43606;SDS011;29197;44.788;10.366;2023-04-24T08:06:37;10.13;;;4.83;;
43606;SDS011;29197;44.788;10.366;2023-04-24T08:09:27;7.25;;;4.95;;
43606;SDS011;29197;44.788;10.366;2023-04-24T08:12:15;7.90;;;5.13;;
43606;SDS011;29197;44.788;10.366;2023-04-24T08:15:04;7.33;;;4.63;;
43606;SDS011;29197;44.788;10.366;2023-04-24T08:17:54;7.28;;;5.05;;
43606;SDS011;29197;44.788;10.366;2023-04-24T08:20:44;7.72;;;5.18;;
43606;SDS011;29197;44.788;10.366;2023-04-24T08:23:33;5.70;;;3.80;;
43606;SDS011;29197;44.788;10.366;2023-04-24T08:26:23;3.88;;;3.35;;
43606;SDS011;29197;44.788;10.366;2023-04-24T08:29:11;4.00;;;3.55;;
43606;SDS011;29197;44.788;10.366;2023-04-24T08:32:00;4.63;;;3.72;;
43606;SDS011;29197;44.788;10.366;2023-04-24T08:34:48;5.07;;;3.47;;
43606;SDS011;29197;44.788;10.366;2023-04-24T08:37:39;5.80;;;3.83;;
43606;SDS011;29197;44.788;10.366;2023-04-24T08:40:28;4.72;;;3.00;;
43606;SDS011;29197;44.788;10.366;2023-04-24T08:43:19;3.67;;;3.28;;
43606;SDS011;29197;44.788;10.366;2023-04-24T08:46:10;5.97;;;3.17;;
43606;SDS011;29197;44.788;10.366;2023-04-24T08:49:01;6.88;;;3.58;;
43606;SDS011;29197;44.788;10.366;2023-04-24T08:51:49;5.45;;;3.65;;
43606;SDS011;29197;44.788;10.366;2023-04-24T08:54:40;6.95;;;4.32;;
43606;SDS011;29197;44.788;10.366;2023-04-24T08:57:30;5.13;;;3.60;;
43606;SDS011;29197;44.788;10.366;2023-04-24T09:00:21;6.13;;;4.10;;
43606;SDS011;29197;44.788;10.366;2023-04-24T09:03:10;5.95;;;3.92;;
43606;SDS011;29197;44.788;10.366;2023-04-24T09:05:59;4.22;;;3.13;;
43606;SDS011;29197;44.788;10.366;2023-04-24T09:08:49;6.70;;;4.55;;
43606;SDS011;29197;44.788;10.366;2023-04-24T09:11:42;5.25;;;4.03;;
43606;SDS011;29197;44.788;10.366;2023-04-24T09:14:31;6.35;;;4.63;;
43606;SDS011;29197;44.788;10.366;2023-04-24T09:17:24;5.55;;;3.65;;
43606;SDS011;29197;44.788;10.366;2023-04-24T09:20:15;4.72;;;3.85;;
43606;SDS011;29197;44.788;10.366;2023-04-24T09:23:03;5.47;;;4.22;;
43606;SDS011;29197;44.788;10.366;2023-04-24T09:25:53;6.60;;;4.63;;
43606;SDS011;29197;44.788;10.366;2023-04-24T09:28:43;5.65;;;4.20;;
43606;SDS011;29197;44.788;10.366;2023-04-24T09:31:32;6.07;;;4.50;;
43606;SDS011;29197;44.788;10.366;2023-04-24T10:02:36;5.00;;;3.42;;
43606;SDS011;29197;44.788;10.366;2023-04-24T10:05:26;3.33;;;2.80;;
43606;SDS011;29197;44.788;10.366;2023-04-24T10:08:16;3.25;;;2.90;;
43606;SDS011;29197;44.788;10.366;2023-04-24T10:11:05;4.70;;;3.42;;
43606;SDS011;29197;44.788;10.366;2023-04-24T10:13:55;4.00;;;3.20;;
43606;SDS011;29197;44.788;10.366;2023-04-24T10:16:44;3.63;;;3.30;;
43606;SDS011;29197;44.788;10.366;2023-04-24T10:19:35;6.70;;;3.95;;
43606;SDS011;29197;44.788;10.366;2023-04-24T10:22:25;5.05;;;3.85;;
43606;SDS011;29197;44.788;10.366;2023-04-24T10:25:16;4.30;;;3.50;;
43606;SDS011;29197;44.788;10.366;2023-04-24T10:28:07;5.67;;;3.73;;
43606;SDS011;29197;44.788;10.366;2023-04-24T10:30:57;6.00;;;4.20;;
43606;SDS011;29197;44.788;10.366;2023-04-24T10:33:47;3.80;;;3.22;;
43606;SDS011;29197;44.788;10.366;2023-04-24T10:36:40;4.93;;;3.37;;
43606;SDS011;29197;44.788;10.366;2023-04-24T10:39:30;5.50;;;4.00;;
43606;SDS011;29197;44.788;10.366;2023-04-24T10:42:20;4.35;;;3.00;;
43606;SDS011;29197;44.788;10.366;2023-04-24T10:45:15;4.25;;;3.42;;
43606;SDS011;29197;44.788;10.366;2023-04-24T10:48:06;3.63;;;3.08;;
43606;SDS011;29197;44.788;10.366;2023-04-24T10:51:00;6.00;;;4.32;;
43606;SDS011;29197;44.788;10.366;2023-04-24T10:53:51;3.33;;;2.70;;
43606;SDS011;29197;44.788;10.366;2023-04-24T10:56:39;4.20;;;3.00;;
43606;SDS011;29197;44.788;10.366;2023-04-24T10:59:28;3.92;;;3.20;;
43606;SDS011;29197;44.788;10.366;2023-04-24T11:02:35;4.20;;;3.53;;
43606;SDS011;29197;44.788;10.366;2023-04-24T11:08:39;3.85;;;3.20;;
43606;SDS011;29197;44.788;10.366;2023-04-24T11:11:32;3.88;;;2.70;;
43606;SDS011;29197;44.788;10.366;2023-04-24T11:14:20;3.42;;;3.13;;
43606;SDS011;29197;44.788;10.366;2023-04-24T11:17:26;4.53;;;3.53;;
43606;SDS011;29197;44.788;10.366;2023-04-24T11:20:17;3.35;;;2.88;;
43606;SDS011;29197;44.788;10.366;2023-04-24T11:23:11;3.00;;;2.47;;
43606;SDS011;29197;44.788;10.366;2023-04-24T11:26:09;5.30;;;3.65;;
43606;SDS011;29197;44.788;10.366;2023-04-24T11:29:07;3.83;;;3.42;;
43606;SDS011;29197;44.788;10.366;2023-04-24T11:31:55;4.28;;;3.28;;
43606;SDS011;29197;44.788;10.366;2023-04-24T11:35:03;4.13;;;3.17;;
43606;SDS011;29197;44.788;10.366;2023-04-24T11:37:54;5.10;;;3.67;;
43606;SDS011;29197;44.788;10.366;2023-04-24T11:40:46;5.25;;;3.70;;
43606;SDS011;29197;44.788;10.366;2023-04-24T11:43:36;3.30;;;3.00;;
43606;SDS011;29197;44.788;10.366;2023-04-24T11:46:29;2.80;;;2.50;;
43606;SDS011;29197;44.788;10.366;2023-04-24T11:49:18;3.53;;;2.60;;
43606;SDS011;29197;44.788;10.366;2023-04-24T11:52:07;3.30;;;2.73;;
43606;SDS011;29197;44.788;10.366;2023-04-24T11:54:57;2.33;;;2.13;;
43606;SDS011;29197;44.788;10.366;2023-04-24T11:57:47;3.42;;;2.60;;
43606;SDS011;29197;44.788;10.366;2023-04-24T12:00:37;4.28;;;3.28;;
43606;SDS011;29197;44.788;10.366;2023-04-24T12:03:27;4.40;;;3.15;;
43606;SDS011;29197;44.788;10.366;2023-04-24T12:06:15;3.87;;;2.47;;
43606;SDS011;29197;44.788;10.366;2023-04-24T12:09:04;2.58;;;2.10;;
43606;SDS011;29197;44.788;10.366;2023-04-24T12:12:03;3.70;;;2.80;;
43606;SDS011;29197;44.788;10.366;2023-04-24T12:14:57;3.70;;;2.50;;
43606;SDS011;29197;44.788;10.366;2023-04-24T12:17:47;3.05;;;2.25;;
43606;SDS011;29197;44.788;10.366;2023-04-24T12:20:38;2.88;;;2.65;;
43606;SDS011;29197;44.788;10.366;2023-04-24T12:23:34;3.28;;;2.35;;
43606;SDS011;29197;44.788;10.366;2023-04-24T12:26:23;2.78;;;2.55;;
43606;SDS011;29197;44.788;10.366;2023-04-24T12:29:19;4.97;;;2.92;;
43606;SDS011;29197;44.788;10.366;2023-04-24T12:32:15;2.13;;;1.80;;
43606;SDS011;29197;44.788;10.366;2023-04-24T12:35:04;2.55;;;2.35;;
43606;SDS011;29197;44.788;10.366;2023-04-24T12:37:55;2.88;;;2.38;;
43606;SDS011;29197;44.788;10.366;2023-04-24T12:40:43;2.25;;;2.05;;
43606;SDS011;29197;44.788;10.366;2023-04-24T12:43:32;2.78;;;2.55;;
43606;SDS011;29197;44.788;10.366;2023-04-24T12:46:21;5.18;;;2.60;;
43606;SDS011;29197;44.788;10.366;2023-04-24T12:49:10;2.38;;;1.80;;
43606;SDS011;29197;44.788;10.366;2023-04-24T12:51:58;2.15;;;1.95;;
43606;SDS011;29197;44.788;10.366;2023-04-24T12:54:48;1.92;;;1.50;;
43606;SDS011;29197;44.788;10.366;2023-04-24T12:57:37;1.70;;;1.60;;
43606;SDS011;29197;44.788;10.366;2023-04-24T13:00:26;3.17;;;2.70;;
43606;SDS011;29197;44.788;10.366;2023-04-24T13:03:15;2.87;;;2.20;;
43606;SDS011;29197;44.788;10.366;2023-04-24T13:06:04;2.55;;;2.20;;
43606;SDS011;29197;44.788;10.366;2023-04-24T13:08:52;2.90;;;2.60;;
43606;SDS011;29197;44.788;10.366;2023-04-24T13:11:42;2.75;;;2.20;;
43606;SDS011;29197;44.788;10.366;2023-04-24T13:14:31;2.50;;;2.30;;
43606;SDS011;29197;44.788;10.366;2023-04-24T13:17:20;1.88;;;1.77;;
43606;SDS011;29197;44.788;10.366;2023-04-24T13:20:09;2.92;;;2.03;;
43606;SDS011;29197;44.788;10.366;2023-04-24T13:22:58;3.92;;;3.50;;
43606;SDS011;29197;44.788;10.366;2023-04-24T13:25:47;3.70;;;3.40;;
43606;SDS011;29197;44.788;10.366;2023-04-24T13:28:37;1.70;;;1.60;;
43606;SDS011;29197;44.788;10.366;2023-04-24T13:31:26;1.85;;;1.75;;
43606;SDS011;29197;44.788;10.366;2023-04-24T13:34:14;2.95;;;2.55;;
43606;SDS011;29197;44.788;10.366;2023-04-24T13:37:03;3.67;;;3.38;;
43606;SDS011;29197;44.788;10.366;2023-04-24T13:39:53;2.97;;;2.67;;
43606;SDS011;29197;44.788;10.366;2023-04-24T13:42:41;2.28;;;2.08;;
43606;SDS011;29197;44.788;10.366;2023-04-24T13:45:32;3.80;;;2.30;;
43606;SDS011;29197;44.788;10.366;2023-04-24T13:48:21;2.20;;;2.00;;
43606;SDS011;29197;44.788;10.366;2023-04-24T13:51:10;2.60;;;2.40;;
43606;SDS011;29197;44.788;10.366;2023-04-24T13:53:59;2.33;;;2.13;;
43606;SDS011;29197;44.788;10.366;2023-04-24T13:56:48;1.70;;;1.60;;
43606;SDS011;29197;44.788;10.366;2023-04-24T13:59:37;4.13;;;2.53;;
43606;SDS011;29197;44.788;10.366;2023-04-24T14:02:27;1.75;;;1.20;;
43606;SDS011;29197;44.788;10.366;2023-04-24T14:05:16;1.45;;;1.00;;
43606;SDS011;29197;44.788;10.366;2023-04-24T14:08:05;2.10;;;1.10;;
43606;SDS011;29197;44.788;10.366;2023-04-24T14:10:53;2.58;;;1.35;;
43606;SDS011;29197;44.788;10.366;2023-04-24T14:13:42;3.65;;;1.20;;
43606;SDS011;29197;44.788;10.366;2023-04-24T14:16:32;1.75;;;1.60;;
43606;SDS011;29197;44.788;10.366;2023-04-24T14:19:23;2.00;;;1.30;;
43606;SDS011;29197;44.788;10.366;2023-04-24T14:22:11;2.25;;;1.15;;
43606;SDS011;29197;44.788;10.366;2023-04-24T14:25:00;1.67;;;1.57;;
43606;SDS011;29197;44.788;10.366;2023-04-24T14:27:48;4.55;;;1.60;;
43606;SDS011;29197;44.788;10.366;2023-04-24T14:30:37;2.53;;;1.00;;
43606;SDS011;29197;44.788;10.366;2023-04-24T14:33:27;1.90;;;1.20;;
43606;SDS011;29197;44.788;10.366;2023-04-24T14:36:17;2.08;;;0.60;;
43606;SDS011;29197;44.788;10.366;2023-04-24T14:39:06;2.10;;;0.55;;
43606;SDS011;29197;44.788;10.366;2023-04-24T14:41:54;3.37;;;0.60;;
43606;SDS011;29197;44.788;10.366;2023-04-24T14:44:43;2.00;;;0.30;;
43606;SDS011;29197;44.788;10.366;2023-04-24T14:47:32;2.05;;;0.50;;
43606;SDS011;29197;44.788;10.366;2023-04-24T14:50:20;3.67;;;0.60;;
43606;SDS011;29197;44.788;10.366;2023-04-24T14:53:11;0.90;;;0.70;;
43606;SDS011;29197;44.788;10.366;2023-04-24T14:56:00;1.60;;;0.50;;
43606;SDS011;29197;44.788;10.366;2023-04-24T14:58:49;5.40;;;1.10;;
43606;SDS011;29197;44.788;10.366;2023-04-24T15:01:38;2.03;;;0.60;;
43606;SDS011;29197;44.788;10.366;2023-04-24T15:04:27;3.70;;;0.50;;
43606;SDS011;29197;44.788;10.366;2023-04-24T15:07:17;1.63;;;0.52;;
43606;SDS011;29197;44.788;10.366;2023-04-24T15:10:08;2.30;;;0.52;;
43606;SDS011;29197;44.788;10.366;2023-04-24T15:12:57;2.97;;;0.50;;
43606;SDS011;29197;44.788;10.366;2023-04-24T15:15:46;0.70;;;0.40;;
43606;SDS011;29197;44.788;10.366;2023-04-24T15:18:35;0.80;;;0.43;;
43606;SDS011;29197;44.788;10.366;2023-04-24T15:21:24;1.90;;;0.32;;
43606;SDS011;29197;44.788;10.366;2023-04-24T15:24:12;1.98;;;0.40;;
43606;SDS011;29197;44.788;10.366;2023-04-24T15:27:02;1.02;;;0.50;;
43606;SDS011;29197;44.788;10.366;2023-04-24T15:29:51;3.08;;;0.75;;
43606;SDS011;29197;44.788;10.366;2023-04-24T15:32:40;2.42;;;0.60;;
43606;SDS011;29197;44.788;10.366;2023-04-24T15:35:28;2.88;;;0.80;;
43606;SDS011;29197;44.788;10.366;2023-04-24T15:38:17;2.22;;;0.63;;
43606;SDS011;29197;44.788;10.366;2023-04-24T15:41:05;3.35;;;0.57;;
43606;SDS011;29197;44.788;10.366;2023-04-24T15:43:55;3.60;;;0.63;;
43606;SDS011;29197;44.788;10.366;2023-04-24T15:46:44;3.78;;;0.68;;
43606;SDS011;29197;44.788;10.366;2023-04-24T15:49:32;1.90;;;0.50;;
43606;SDS011;29197;44.788;10.366;2023-04-24T15:52:21;3.03;;;0.80;;
43606;SDS011;29197;44.788;10.366;2023-04-24T15:55:10;2.65;;;0.47;;
43606;SDS011;29197;44.788;10.366;2023-04-24T15:57:58;2.13;;;0.60;;
43606;SDS011;29197;44.788;10.366;2023-04-24T16:00:49;2.05;;;0.63;;
43606;SDS011;29197;44.788;10.366;2023-04-24T16:03:39;1.52;;;0.63;;
43606;SDS011;29197;44.788;10.366;2023-04-24T16:06:28;1.90;;;0.70;;
43606;SDS011;29197;44.788;10.366;2023-04-24T16:09:17;2.40;;;0.70;;
43606;SDS011;29197;44.788;10.366;2023-04-24T16:12:06;3.07;;;0.90;;
43606;SDS011;29197;44.788;10.366;2023-04-24T16:14:56;2.47;;;1.00;;
43606;SDS011;29197;44.788;10.366;2023-04-24T16:17:46;2.60;;;0.90;;
43606;SDS011;29197;44.788;10.366;2023-04-24T16:20:34;2.97;;;0.65;;
43606;SDS011;29197;44.788;10.366;2023-04-24T16:23:23;2.73;;;0.77;;
43606;SDS011;29197;44.788;10.366;2023-04-24T16:26:12;4.35;;;1.25;;
43606;SDS011;29197;44.788;10.366;2023-04-24T16:29:01;1.57;;;0.77;;
43606;SDS011;29197;44.788;10.366;2023-04-24T16:31:49;2.80;;;0.90;;
43606;SDS011;29197;44.788;10.366;2023-04-24T16:34:40;1.60;;;0.80;;
43606;SDS011;29197;44.788;10.366;2023-04-24T16:37:28;1.75;;;0.80;;
43606;SDS011;29197;44.788;10.366;2023-04-24T16:40:17;4.20;;;0.95;;
43606;SDS011;29197;44.788;10.366;2023-04-24T16:43:06;2.55;;;0.98;;
43606;SDS011;29197;44.788;10.366;2023-04-24T16:45:55;3.92;;;1.05;;
43606;SDS011;29197;44.788;10.366;2023-04-24T16:48:46;1.15;;;0.75;;
43606;SDS011;29197;44.788;10.366;2023-04-24T16:51:36;2.70;;;0.97;;
43606;SDS011;29197;44.788;10.366;2023-04-24T16:54:25;2.50;;;0.90;;
43606;SDS011;29197;44.788;10.366;2023-04-24T16:57:15;3.10;;;1.00;;
43606;SDS011;29197;44.788;10.366;2023-04-24T17:00:04;4.43;;;1.10;;
43606;SDS011;29197;44.788;10.366;2023-04-24T17:02:54;2.43;;;1.00;;
43606;SDS011;29197;44.788;10.366;2023-04-24T17:05:43;1.45;;;0.80;;
43606;SDS011;29197;44.788;10.366;2023-04-24T17:08:33;3.35;;;1.00;;
43606;SDS011;29197;44.788;10.366;2023-04-24T17:11:22;1.92;;;0.90;;
43606;SDS011;29197;44.788;10.366;2023-04-24T17:14:10;1.88;;;0.82;;
43606;SDS011;29197;44.788;10.366;2023-04-24T17:16:59;4.23;;;0.83;;